createdAt,value
2022-10-07T00:01:03.707Z,79.20
2022-10-07T00:03:32.051Z,79.30
2022-10-07T00:06:04.316Z,79.30
2022-10-07T00:08:32.457Z,79.30
2022-10-07T00:11:05.531Z,79.30
2022-10-07T00:13:33.665Z,79.40
2022-10-07T00:16:07.643Z,79.40
2022-10-07T00:18:36.217Z,79.40
2022-10-07T00:21:05.548Z,79.40
2022-10-07T00:23:33.795Z,79.40
2022-10-07T00:26:02.677Z,79.40
2022-10-07T00:28:30.847Z,79.40
2022-10-07T00:30:59.609Z,79.40
2022-10-07T00:33:31.173Z,79.40
2022-10-07T00:35:59.327Z,79.50
2022-10-07T00:38:27.353Z,79.60
2022-10-07T00:40:55.435Z,79.60
2022-10-07T00:43:24.390Z,79.60
2022-10-07T00:45:52.501Z,79.50
2022-10-07T00:48:22.877Z,79.50
2022-10-07T00:50:53.046Z,79.40
2022-10-07T00:53:21.330Z,79.40
2022-10-07T00:55:49.482Z,79.30
2022-10-07T00:58:19.298Z,79.30
2022-10-07T01:00:47.465Z,79.30
2022-10-07T01:03:15.837Z,79.20
2022-10-07T01:05:44.055Z,79.30
2022-10-07T01:08:15.759Z,79.30
2022-10-07T01:10:47.879Z,79.20
2022-10-07T01:13:19.677Z,79.20
2022-10-07T01:15:50.372Z,79.20
2022-10-07T01:18:19.453Z,79.20
2022-10-07T01:20:51.241Z,79.20
2022-10-07T01:23:39.191Z,79.30
2022-10-07T01:26:39.178Z,79.20
2022-10-07T01:29:09.520Z,79.20
2022-10-07T01:31:40.215Z,79.10
2022-10-07T01:34:08.336Z,79.20
2022-10-07T01:36:37.070Z,79.20
2022-10-07T01:39:09.168Z,79.10
2022-10-07T01:41:38.723Z,79.20
2022-10-07T01:44:06.913Z,79.10
2022-10-07T01:46:37.803Z,80.10
2022-10-07T01:49:06.342Z,79.20
2022-10-07T01:51:36.381Z,79.10
2022-10-07T01:54:09.733Z,79.10
2022-10-07T01:56:48.908Z,79.20
2022-10-07T01:59:31.318Z,79.20
2022-10-07T02:02:02.351Z,79.20
2022-10-07T02:04:48.364Z,79.30
2022-10-07T02:07:22.901Z,79.30
2022-10-07T02:09:52.328Z,79.20
2022-10-07T02:12:23.819Z,79.20
2022-10-07T02:14:53.154Z,79.30
2022-10-07T02:17:22.257Z,79.40
2022-10-07T02:19:53.375Z,79.40
2022-10-07T02:22:23.052Z,79.30
2022-10-07T02:24:51.694Z,79.30
2022-10-07T02:27:24.054Z,79.30
2022-10-07T02:29:58.073Z,79.30
2022-10-07T02:32:26.526Z,79.20
2022-10-07T02:34:56.741Z,79.20
2022-10-07T02:37:27.161Z,79.30
2022-10-07T02:39:55.893Z,79.30
2022-10-07T02:42:27.556Z,79.30
2022-10-07T02:44:57.203Z,79.30
2022-10-07T02:47:28.994Z,79.30
2022-10-07T02:49:57.281Z,79.30
2022-10-07T02:52:25.914Z,79.20
2022-10-07T02:54:57.190Z,79.20
2022-10-07T02:57:26.893Z,79.30
2022-10-07T02:59:54.962Z,79.20
2022-10-07T03:02:24.837Z,79.10
2022-10-07T03:04:53.467Z,79.20
2022-10-07T03:07:21.776Z,79.20
2022-10-07T03:09:50.211Z,79.20
2022-10-07T03:12:18.364Z,79.10
2022-10-07T03:14:49.940Z,79.10
2022-10-07T03:17:19.559Z,79.10
2022-10-07T03:19:49.493Z,79.10
2022-10-07T03:22:17.909Z,79.10
2022-10-07T03:24:46.022Z,79.10
2022-10-07T03:27:14.091Z,79.20
2022-10-07T03:29:42.571Z,79.20
2022-10-07T03:32:12.024Z,79.20
2022-10-07T03:34:40.076Z,79.10
2022-10-07T03:37:08.495Z,79.10
2022-10-07T03:39:36.654Z,79.10
2022-10-07T03:42:05.470Z,79.10
2022-10-07T03:44:35.624Z,79.10
2022-10-07T03:47:08.696Z,79.10
2022-10-07T03:49:41.562Z,79.10
2022-10-07T03:52:09.736Z,79.10
2022-10-07T03:54:37.859Z,79.00
2022-10-07T03:57:27.370Z,79.00
2022-10-07T03:59:56.057Z,79.00
2022-10-07T04:02:24.223Z,78.90
2022-10-07T04:04:53.752Z,78.90
2022-10-07T04:07:23.833Z,79.00
2022-10-07T04:09:52.818Z,78.90
2022-10-07T04:12:21.182Z,78.90
2022-10-07T04:14:49.318Z,79.00
2022-10-07T04:17:18.858Z,78.90
2022-10-07T04:19:47.326Z,78.90
2022-10-07T04:22:17.285Z,78.90
2022-10-07T04:25:05.440Z,78.90
2022-10-07T04:27:51.127Z,78.80
2022-10-07T04:30:19.988Z,78.90
2022-10-07T04:32:49.498Z,78.80
2022-10-07T04:35:19.258Z,78.80
2022-10-07T04:37:50.533Z,78.80
2022-10-07T04:40:19.948Z,78.90
2022-10-07T04:43:06.239Z,78.90
2022-10-07T04:45:35.157Z,78.90
2022-10-07T04:48:04.174Z,78.80
2022-10-07T04:50:32.597Z,78.90
2022-10-07T04:53:02.573Z,78.90
2022-10-07T04:55:37.452Z,78.80
2022-10-07T04:58:06.066Z,78.90
2022-10-07T05:00:34.269Z,78.90
2022-10-07T05:03:02.495Z,78.90
2022-10-07T05:05:30.913Z,78.90
2022-10-07T05:07:59.830Z,78.90
2022-10-07T05:10:30.437Z,78.80
2022-10-07T05:12:58.979Z,78.80
2022-10-07T05:15:27.229Z,78.80
2022-10-07T05:17:55.947Z,78.80
2022-10-07T05:20:26.861Z,78.80
2022-10-07T05:22:55.915Z,78.80
2022-10-07T05:25:24.214Z,78.80
2022-10-07T05:27:54.998Z,78.70
2022-10-07T05:30:23.312Z,78.70
2022-10-07T05:32:51.471Z,78.70
2022-10-07T05:35:19.625Z,78.70
2022-10-07T05:37:51.219Z,78.60
2022-10-07T05:40:20.333Z,78.60
2022-10-07T05:42:48.905Z,78.60
2022-10-07T05:45:19.201Z,78.60
2022-10-07T05:47:47.689Z,78.60
2022-10-07T05:50:16.402Z,78.50
2022-10-07T05:52:45.374Z,78.60
2022-10-07T05:55:14.604Z,78.50
2022-10-07T05:57:42.924Z,78.50
2022-10-07T06:00:12.552Z,78.50
2022-10-07T06:02:49.278Z,78.60
2022-10-07T06:05:18.826Z,78.60
2022-10-07T06:07:47.910Z,78.50
2022-10-07T06:10:39.083Z,78.60
2022-10-07T06:13:10.172Z,78.60
2022-10-07T06:15:41.283Z,78.50
2022-10-07T06:18:10.912Z,78.50
2022-10-07T06:20:39.876Z,78.50
2022-10-07T06:23:07.965Z,78.50
2022-10-07T06:25:36.141Z,78.50
2022-10-07T06:28:04.498Z,78.40
2022-10-07T06:30:32.702Z,78.40
2022-10-07T06:33:03.145Z,78.40
2022-10-07T06:35:32.751Z,78.30
2022-10-07T06:38:00.832Z,78.40
2022-10-07T06:40:29.161Z,78.30
2022-10-07T06:42:57.257Z,78.30
2022-10-07T06:45:32.099Z,78.30
2022-10-07T06:48:00.635Z,78.40
2022-10-07T06:50:29.384Z,78.20
2022-10-07T06:52:59.785Z,78.20
2022-10-07T06:55:31.031Z,78.10
2022-10-07T06:57:59.336Z,78.10
2022-10-07T07:00:28.043Z,78.30
2022-10-07T07:02:56.518Z,78.30
2022-10-07T07:05:25.087Z,78.40
2022-10-07T07:07:53.448Z,78.40
2022-10-07T07:10:23.065Z,79.10
2022-10-07T07:12:54.223Z,78.10
2022-10-07T07:15:22.615Z,78.10
2022-10-07T07:17:50.809Z,78.10
2022-10-07T07:20:19.489Z,78.00
2022-10-07T07:22:47.778Z,78.40
2022-10-07T07:25:15.937Z,78.40
2022-10-07T07:27:48.652Z,78.20
2022-10-07T07:30:22.038Z,78.30
2022-10-07T07:32:50.954Z,78.50
2022-10-07T07:35:19.094Z,78.60
2022-10-07T07:37:47.866Z,78.70
2022-10-07T07:40:16.281Z,78.60
2022-10-07T07:42:45.745Z,78.50
2022-10-07T07:45:13.898Z,78.60
2022-10-07T07:47:42.362Z,78.60
2022-10-07T07:50:11.850Z,78.60
2022-10-07T07:52:39.925Z,78.70
2022-10-07T07:55:08.975Z,78.70
2022-10-07T07:57:38.233Z,79.00
2022-10-07T08:00:12.800Z,79.10
2022-10-07T08:02:53.767Z,79.10
2022-10-07T08:05:24.113Z,79.20
2022-10-07T08:07:55.345Z,79.30
2022-10-07T08:10:25.320Z,79.30
2022-10-07T08:12:53.438Z,79.20
2022-10-07T08:15:23.515Z,79.20
2022-10-07T08:17:51.757Z,79.20
2022-10-07T08:20:19.863Z,79.20
2022-10-07T08:22:49.710Z,79.10
2022-10-07T08:25:18.353Z,79.00
2022-10-07T08:27:47.786Z,78.90
2022-10-07T08:30:16.236Z,78.70
2022-10-07T08:32:45.795Z,78.60
2022-10-07T08:35:13.886Z,78.60
2022-10-07T08:37:42.047Z,78.60
2022-10-07T08:40:15.869Z,79.40
2022-10-07T08:42:43.983Z,78.40
2022-10-07T08:45:14.908Z,78.40
2022-10-07T08:47:45.249Z,78.40
2022-10-07T08:50:19.411Z,78.50
2022-10-07T08:52:51.019Z,78.50
2022-10-07T08:55:20.675Z,78.50
2022-10-07T08:58:04.414Z,78.50
2022-10-07T09:00:37.976Z,78.50
2022-10-07T09:03:09.901Z,78.40
2022-10-07T09:05:40.505Z,78.40
2022-10-07T09:08:13.236Z,78.40
2022-10-07T09:10:43.021Z,78.30
2022-10-07T09:13:12.723Z,78.30
2022-10-07T09:15:58.235Z,78.30
2022-10-07T09:18:31.886Z,78.40
2022-10-07T09:21:00.027Z,78.30
2022-10-07T09:23:30.853Z,78.30
2022-10-07T09:25:58.900Z,78.40
2022-10-07T09:28:28.750Z,78.30
2022-10-07T09:30:57.114Z,78.20
2022-10-07T09:33:27.750Z,78.30
2022-10-07T09:35:57.709Z,78.20
2022-10-07T09:38:33.786Z,78.20
2022-10-07T09:41:17.814Z,78.20
2022-10-07T09:43:56.379Z,78.20
2022-10-07T09:46:42.162Z,78.10
2022-10-07T09:49:39.627Z,78.00
2022-10-07T09:52:13.090Z,78.00
2022-10-07T09:54:41.266Z,77.90
2022-10-07T09:57:26.770Z,77.80
2022-10-07T10:00:25.002Z,77.80
2022-10-07T10:02:54.749Z,77.70
2022-10-07T10:05:28.509Z,77.60
2022-10-07T10:08:01.338Z,77.70
2022-10-07T10:10:30.665Z,77.60
2022-10-07T10:12:59.394Z,77.50
2022-10-07T10:15:30.429Z,77.50
2022-10-07T10:17:58.648Z,77.40
2022-10-07T10:20:33.131Z,77.40
2022-10-07T10:23:01.889Z,77.40
2022-10-07T10:25:57.086Z,77.40
2022-10-07T10:28:32.848Z,77.40
2022-10-07T10:31:04.352Z,77.40
2022-10-07T10:33:33.623Z,77.20
2022-10-07T10:36:06.938Z,77.20
2022-10-07T10:38:37.893Z,77.20
2022-10-07T10:41:11.536Z,77.20
2022-10-07T10:43:49.605Z,77.10
2022-10-07T10:46:27.702Z,77.10
2022-10-07T10:48:56.996Z,77.10
2022-10-07T10:51:40.432Z,77.10
2022-10-07T10:54:17.893Z,77.00
2022-10-07T10:56:48.770Z,77.50
2022-10-07T10:59:28.078Z,77.00
2022-10-07T11:01:59.325Z,76.90
2022-10-07T11:04:43.541Z,76.90
2022-10-07T11:07:16.003Z,76.90
2022-10-07T11:09:46.440Z,76.80
2022-10-07T11:12:22.370Z,76.80
2022-10-07T11:14:57.578Z,76.80
2022-10-07T11:17:30.220Z,76.80
2022-10-07T11:20:04.245Z,76.70
2022-10-07T11:22:37.656Z,76.70
2022-10-07T11:25:13.208Z,76.60
2022-10-07T11:27:41.313Z,76.60
2022-10-07T11:30:17.206Z,76.60
2022-10-07T11:32:46.797Z,76.60
2022-10-07T11:35:25.885Z,76.50
2022-10-07T11:37:58.767Z,76.50
2022-10-07T11:40:29.083Z,76.50
2022-10-07T11:42:57.698Z,76.50
2022-10-07T11:45:27.360Z,76.40
2022-10-07T11:47:57.075Z,76.40
2022-10-07T11:50:26.634Z,76.40
2022-10-07T11:52:57.027Z,76.40
2022-10-07T11:55:26.823Z,76.40
2022-10-07T11:57:56.424Z,76.40
2022-10-07T12:00:26.224Z,76.40
2022-10-07T12:02:55.179Z,76.40
2022-10-07T12:06:06.173Z,76.30
2022-10-07T12:08:36.652Z,76.30
2022-10-07T12:11:45.440Z,76.30
2022-10-07T12:14:34.121Z,76.20
2022-10-07T12:17:21.457Z,76.20
2022-10-07T12:20:06.860Z,76.20
2022-10-07T12:22:35.787Z,76.10
2022-10-07T12:25:32.035Z,76.10
2022-10-07T12:28:00.319Z,76.10
2022-10-07T12:30:50.674Z,76.00
2022-10-07T12:33:26.857Z,76.10
2022-10-07T12:35:55.219Z,76.10
2022-10-07T12:38:25.712Z,76.00
2022-10-07T12:41:17.852Z,76.00
2022-10-07T12:43:49.528Z,76.00
2022-10-07T12:46:19.350Z,76.00
2022-10-07T12:48:49.261Z,75.90
2022-10-07T12:51:19.717Z,75.90
2022-10-07T12:53:48.071Z,75.90
2022-10-07T12:56:21.389Z,75.90
2022-10-07T12:59:23.864Z,76.90
2022-10-07T13:02:41.926Z,75.90
2022-10-07T13:05:37.338Z,75.90
2022-10-07T13:08:34.553Z,75.80
2022-10-07T13:11:22.396Z,75.90
2022-10-07T13:13:52.485Z,75.90
2022-10-07T13:16:22.048Z,75.90
2022-10-07T13:18:53.771Z,76.00
2022-10-07T13:21:23.181Z,76.10
2022-10-07T13:23:52.194Z,76.10
2022-10-07T13:26:23.180Z,76.20
2022-10-07T13:28:51.942Z,76.20
2022-10-07T13:31:21.900Z,76.10
2022-10-07T13:33:50.155Z,76.10
2022-10-07T13:36:20.567Z,76.10
2022-10-07T13:38:49.218Z,76.10
2022-10-07T13:41:22.494Z,76.20
2022-10-07T13:43:52.531Z,76.10
2022-10-07T13:46:21.084Z,76.20
2022-10-07T13:48:49.400Z,76.10
2022-10-07T13:51:22.231Z,76.10
2022-10-07T13:53:53.833Z,76.20
2022-10-07T13:56:24.705Z,76.20
2022-10-07T13:58:54.697Z,76.20
2022-10-07T14:01:23.653Z,76.20
2022-10-07T14:04:04.942Z,76.50
2022-10-07T14:06:48.333Z,77.00
2022-10-07T14:09:26.258Z,76.60
2022-10-07T14:11:57.444Z,76.40
2022-10-07T14:14:27.397Z,76.40
2022-10-07T14:16:59.262Z,76.30
2022-10-07T14:19:32.873Z,76.30
2022-10-07T14:22:04.822Z,76.20
2022-10-07T14:24:32.869Z,76.20
2022-10-07T14:27:02.342Z,76.30
2022-10-07T14:29:37.882Z,76.30
2022-10-07T14:32:37.019Z,76.40
2022-10-07T14:35:21.709Z,76.50
2022-10-07T14:37:50.368Z,76.80
2022-10-07T14:40:20.197Z,76.90
2022-10-07T14:42:49.832Z,76.80
2022-10-07T14:45:18.513Z,76.70
2022-10-07T14:47:46.805Z,76.70
2022-10-07T14:50:16.263Z,76.70
2022-10-07T14:52:47.000Z,76.80
2022-10-07T14:55:17.107Z,76.90
2022-10-07T14:57:45.257Z,77.00
2022-10-07T15:00:16.248Z,77.00
2022-10-07T15:02:44.623Z,77.20
2022-10-07T15:05:13.710Z,77.20
2022-10-07T15:07:42.232Z,77.60
2022-10-07T15:10:15.057Z,77.70
2022-10-07T15:12:44.747Z,77.70
2022-10-07T15:15:15.670Z,77.60
2022-10-07T15:17:43.870Z,77.50
2022-10-07T15:20:12.855Z,77.50
2022-10-07T15:22:40.959Z,77.40
2022-10-07T15:25:10.052Z,77.40
2022-10-07T15:27:38.317Z,77.40
2022-10-07T15:30:07.303Z,77.30
2022-10-07T15:32:36.805Z,77.30
2022-10-07T15:35:05.180Z,77.30
2022-10-07T15:37:33.528Z,78.40
2022-10-07T15:40:01.686Z,77.40
2022-10-07T15:42:29.716Z,77.50
2022-10-07T15:44:57.780Z,77.50
2022-10-07T15:47:27.248Z,77.50
2022-10-07T15:49:56.645Z,77.50
2022-10-07T15:52:25.162Z,77.50
2022-10-07T15:54:53.213Z,77.50
2022-10-07T15:57:22.377Z,77.50
2022-10-07T15:59:50.482Z,77.40
2022-10-07T16:02:21.164Z,77.40
2022-10-07T16:04:49.406Z,77.40
2022-10-07T16:07:18.872Z,77.40
2022-10-07T16:09:46.930Z,77.40
2022-10-07T16:12:14.995Z,77.40
2022-10-07T16:14:43.020Z,77.40
2022-10-07T16:17:11.089Z,77.40
2022-10-07T16:19:39.156Z,77.40
2022-10-07T16:22:07.220Z,78.30
2022-10-07T16:24:37.469Z,77.40
2022-10-07T16:27:05.512Z,77.30
2022-10-07T16:29:51.089Z,77.40
2022-10-07T16:32:19.163Z,77.60
2022-10-07T16:34:48.285Z,77.90
2022-10-07T16:37:16.350Z,78.00
2022-10-07T16:39:45.792Z,78.00
2022-10-07T16:42:13.832Z,78.00
2022-10-07T16:44:41.901Z,77.90
2022-10-07T16:47:09.947Z,78.10
2022-10-07T16:49:38.062Z,78.20
2022-10-07T16:52:06.423Z,78.30
2022-10-07T16:54:35.461Z,78.30
2022-10-07T16:57:05.120Z,78.30
2022-10-07T16:59:33.208Z,78.30
2022-10-07T17:02:03.179Z,78.30
2022-10-07T17:04:31.276Z,79.50
2022-10-07T17:06:59.368Z,78.50
2022-10-07T17:09:27.523Z,78.50
2022-10-07T17:11:57.282Z,78.80
2022-10-07T17:14:27.033Z,78.70
2022-10-07T17:16:57.031Z,78.60
2022-10-07T17:19:25.955Z,78.60
2022-10-07T17:21:54.726Z,78.70
2022-10-07T17:24:23.341Z,78.60
2022-10-07T17:26:52.441Z,78.70
2022-10-07T17:29:21.634Z,78.70
2022-10-07T17:31:51.283Z,78.70
2022-10-07T17:34:20.456Z,78.70
2022-10-07T17:36:48.744Z,78.60
2022-10-07T17:39:17.203Z,78.70
2022-10-07T17:41:45.279Z,78.70
2022-10-07T17:44:13.524Z,78.70
2022-10-07T17:46:41.744Z,78.70
2022-10-07T17:49:13.136Z,78.70
2022-10-07T17:51:42.624Z,78.80
2022-10-07T17:54:11.106Z,78.80
2022-10-07T17:56:39.208Z,78.80
2022-10-07T17:59:07.313Z,78.70
2022-10-07T18:01:35.470Z,78.70
2022-10-07T18:04:04.386Z,78.50
2022-10-07T18:06:36.229Z,78.50
2022-10-07T18:09:05.372Z,78.50
2022-10-07T18:11:50.916Z,78.30
2022-10-07T18:14:36.282Z,78.50
2022-10-07T18:17:04.509Z,78.70
2022-10-07T18:19:32.549Z,78.40
2022-10-07T18:22:03.098Z,78.40
2022-10-07T18:24:31.174Z,78.60
2022-10-07T18:27:00.978Z,78.50
2022-10-07T18:29:29.286Z,78.50
2022-10-07T18:31:57.507Z,78.60
2022-10-07T18:34:25.811Z,78.40
2022-10-07T18:36:56.513Z,78.40
2022-10-07T18:39:27.539Z,78.30
2022-10-07T18:41:55.658Z,78.40
2022-10-07T18:44:23.741Z,78.20
2022-10-07T18:46:51.930Z,78.20
2022-10-07T18:49:19.960Z,78.20
2022-10-07T18:51:50.562Z,78.20
2022-10-07T18:54:18.689Z,78.20
2022-10-07T18:56:49.095Z,78.20
2022-10-07T18:59:17.238Z,78.20
2022-10-07T19:01:50.149Z,78.10
2022-10-07T19:04:19.353Z,78.20
2022-10-07T19:06:47.559Z,78.10
2022-10-07T19:09:16.314Z,78.00
2022-10-07T19:11:44.430Z,78.00
2022-10-07T19:14:12.936Z,78.10
2022-10-07T19:16:41.925Z,78.10
2022-10-07T19:19:11.990Z,78.10
2022-10-07T19:21:40.334Z,78.00
2022-10-07T19:24:08.424Z,77.90
2022-10-07T19:26:38.181Z,77.90
2022-10-07T19:29:07.200Z,77.80
2022-10-07T19:31:37.827Z,77.80
2022-10-07T19:34:06.857Z,77.70
2022-10-07T19:36:36.910Z,77.70
2022-10-07T19:39:05.476Z,77.60
2022-10-07T19:41:34.654Z,77.50
2022-10-07T19:44:03.057Z,77.50
2022-10-07T19:46:32.392Z,77.50
2022-10-07T19:49:02.793Z,77.50
2022-10-07T19:51:31.674Z,77.50
2022-10-07T19:54:00.643Z,77.40
2022-10-07T19:56:29.776Z,77.40
2022-10-07T19:59:00.286Z,77.40
2022-10-07T20:01:29.813Z,77.30
2022-10-07T20:03:59.108Z,77.30
2022-10-07T20:06:28.813Z,77.20
2022-10-07T20:08:57.426Z,77.20
2022-10-07T20:11:25.670Z,77.20
2022-10-07T20:13:54.273Z,77.20
2022-10-07T20:16:24.295Z,77.30
2022-10-07T20:18:58.444Z,77.50
2022-10-07T20:21:27.915Z,77.40
2022-10-07T20:23:56.115Z,77.40
2022-10-07T20:26:25.346Z,77.50
2022-10-07T20:28:54.370Z,77.50
2022-10-07T20:31:23.728Z,77.70
2022-10-07T20:33:52.802Z,77.80
2022-10-07T20:36:21.697Z,77.80
2022-10-07T20:39:12.751Z,77.90
2022-10-07T20:42:06.204Z,78.00
2022-10-07T20:44:34.268Z,78.10
2022-10-07T20:47:02.378Z,78.20
2022-10-07T20:49:32.298Z,78.20
2022-10-07T20:52:01.880Z,78.30
2022-10-07T20:54:31.985Z,78.50
2022-10-07T20:57:00.376Z,78.60
2022-10-07T20:59:28.714Z,78.70
2022-10-07T21:01:56.899Z,78.80
2022-10-07T21:04:25.162Z,78.90
2022-10-07T21:06:53.457Z,79.00
2022-10-07T21:09:21.520Z,79.10
2022-10-07T21:11:50.940Z,79.10
2022-10-07T21:14:19.101Z,79.20
2022-10-07T21:16:47.454Z,79.20
2022-10-07T21:19:15.652Z,79.30
2022-10-07T21:21:43.786Z,79.30
2022-10-07T21:24:11.896Z,79.30
2022-10-07T21:26:39.965Z,79.40
2022-10-07T21:29:11.131Z,79.30
2022-10-07T21:31:39.943Z,79.40
2022-10-07T21:34:08.527Z,79.40
2022-10-07T21:36:37.232Z,79.40
2022-10-07T21:39:05.622Z,79.40
2022-10-07T21:41:35.263Z,79.50
2022-10-07T21:44:04.549Z,79.50
2022-10-07T21:46:35.143Z,79.50
2022-10-07T21:49:03.343Z,79.50
2022-10-07T21:51:32.251Z,79.40
2022-10-07T21:54:00.297Z,79.40
2022-10-07T21:56:29.230Z,79.60
2022-10-07T21:58:59.557Z,79.50
2022-10-07T22:01:27.723Z,79.60
2022-10-07T22:03:57.543Z,79.70
2022-10-07T22:06:45.715Z,79.60
2022-10-07T22:09:13.150Z,79.60
2022-10-07T22:11:41.276Z,79.70
2022-10-07T22:14:12.551Z,79.70
2022-10-07T22:16:41.154Z,79.80
2022-10-07T22:19:11.386Z,79.80
2022-10-07T22:21:41.425Z,79.80
2022-10-07T22:24:09.770Z,79.80
2022-10-07T22:26:40.628Z,79.80
2022-10-07T22:29:09.438Z,79.80
2022-10-07T22:31:37.749Z,79.80
2022-10-07T22:34:05.959Z,79.80
2022-10-07T22:36:35.327Z,79.80
2022-10-07T22:39:03.484Z,79.90
2022-10-07T22:41:32.127Z,79.90
2022-10-07T22:44:00.246Z,80.00
2022-10-07T22:46:28.957Z,80.00
2022-10-07T22:48:58.043Z,80.10
2022-10-07T22:51:28.534Z,80.10
2022-10-07T22:53:58.289Z,80.20
2022-10-07T22:56:27.566Z,80.20
2022-10-07T22:58:58.041Z,80.30
2022-10-07T23:01:26.444Z,80.40
2022-10-07T23:03:54.770Z,80.50
2022-10-07T23:06:22.920Z,80.50
2022-10-07T23:08:51.095Z,80.60
2022-10-07T23:11:21.551Z,80.60
2022-10-07T23:13:49.821Z,80.60
2022-10-07T23:16:18.958Z,80.70
2022-10-07T23:18:47.704Z,80.70
2022-10-07T23:21:16.751Z,80.80
2022-10-07T23:23:46.543Z,80.80
2022-10-07T23:26:15.854Z,80.90
2022-10-07T23:28:45.357Z,80.90
2022-10-07T23:31:14.591Z,81.00
2022-10-07T23:33:42.841Z,80.90
2022-10-07T23:36:11.367Z,80.70
2022-10-07T23:38:39.815Z,80.60
2022-10-07T23:41:08.081Z,80.60
2022-10-07T23:43:36.250Z,80.60
2022-10-07T23:46:07.017Z,80.60
2022-10-07T23:48:35.362Z,80.60
2022-10-07T23:51:03.803Z,80.50
2022-10-07T23:53:32.035Z,80.50
2022-10-07T23:56:00.112Z,80.50
2022-10-07T23:58:28.903Z,80.40
